Moline Acres, Missouri
Current Conditions -  °F | °C
As of 5:51 PM on Friday 21 Nov 2014 (Local Time) from KSTL Reporting Station
Overcast Overcast  
Wind Chill: 35°   Ceiling: 2500
Heat Index: 42°   Visibility: 10mi
Dew Point: 22°   Wind: 13mph
Humidity: 45%   Direction: 130°SE
Pressure: 30.29"   Gusts: NA
Location:  38.7423°N, 90.2608°W
Report Text: KSTL 212351Z 13011KT 10SM BKN025 OVC034 06/M06 A3029 RMK AO2 SLP266 T00561056 10061 20039 58006
Loading
Personal Weather Stations






























Interactive Weather Map New forecast layout! Learn more

10-Day Weather Forecast

Advertisements
Track Severe Weather on mobile